createdAt,value
2017-09-15T00:00:23.186Z,12.2
2017-09-15T00:01:03.762Z,12.2
2017-09-15T00:01:44.328Z,12.24
2017-09-15T00:02:24.892Z,12.2
2017-09-15T00:03:05.451Z,12.2
2017-09-15T00:03:46.018Z,12.17
2017-09-15T00:04:26.579Z,12.07
2017-09-15T00:05:07.159Z,12.15
2017-09-15T00:05:47.725Z,12.15
2017-09-15T00:06:28.308Z,12.1
2017-09-15T00:07:08.867Z,12.2
2017-09-15T00:07:49.432Z,12.2
2017-09-15T00:08:29.987Z,12.13
2017-09-15T00:09:10.547Z,12.15
2017-09-15T00:09:51.128Z,12.18
2017-09-15T00:10:31.695Z,12.13
2017-09-15T00:11:12.274Z,12.18
2017-09-15T00:11:52.901Z,12.18
2017-09-15T00:12:33.468Z,12.17
2017-09-15T00:13:14.035Z,12.18
2017-09-15T00:13:54.595Z,12.12
2017-09-15T00:14:35.214Z,12.2
2017-09-15T00:15:15.785Z,12.15
2017-09-15T00:15:56.359Z,12.15
2017-09-15T00:16:36.939Z,12.15
2017-09-15T00:17:17.494Z,12.13
2017-09-15T00:17:58.049Z,12.1
2017-09-15T00:18:38.615Z,12.12
2017-09-15T00:19:19.224Z,12.13
2017-09-15T00:19:59.781Z,12.18
2017-09-15T00:20:40.347Z,12.2
2017-09-15T00:21:20.920Z,12.13
2017-09-15T00:22:01.504Z,12.15
2017-09-15T00:22:42.079Z,12.15
2017-09-15T00:23:22.686Z,12.13
2017-09-15T00:24:03.258Z,12.07
2017-09-15T00:24:43.826Z,12.15
2017-09-15T00:25:24.394Z,12.17
2017-09-15T00:26:04.966Z,12.15
2017-09-15T00:26:45.524Z,12.1
2017-09-15T00:27:26.076Z,12.13
2017-09-15T00:28:06.662Z,12.17
2017-09-15T00:28:47.214Z,12.1
2017-09-15T00:29:27.778Z,12.2
2017-09-15T00:30:08.493Z,12.15
2017-09-15T00:30:49.052Z,12.12
2017-09-15T00:31:29.619Z,12.18
2017-09-15T00:32:10.179Z,12.12
2017-09-15T00:32:50.753Z,12.12
2017-09-15T00:33:31.315Z,12.13
2017-09-15T00:34:11.881Z,12.12
2017-09-15T00:34:52.441Z,12.15
2017-09-15T00:35:32.998Z,12.21
2017-09-15T00:36:13.585Z,12.2
2017-09-15T00:36:54.186Z,12.18
2017-09-15T00:37:34.747Z,12.2
2017-09-15T00:38:15.314Z,12.27
2017-09-15T00:38:55.882Z,12.2
2017-09-15T00:39:36.452Z,12.22
2017-09-15T00:40:17.016Z,12.27
2017-09-15T00:40:57.586Z,12.27
2017-09-15T00:41:38.144Z,12.22
2017-09-15T00:42:18.714Z,12.22
2017-09-15T00:42:59.283Z,12.2
2017-09-15T00:43:39.861Z,12.25
2017-09-15T00:44:20.418Z,12.24
2017-09-15T00:45:00.983Z,12.31
2017-09-15T00:45:41.558Z,12.35
2017-09-15T00:46:22.133Z,12.35
2017-09-15T00:47:02.703Z,12.29
2017-09-15T00:47:43.291Z,12.22
2017-09-15T00:48:23.881Z,12.22
2017-09-15T00:49:04.447Z,12.32
2017-09-15T00:49:45.007Z,12.37
2017-09-15T00:50:25.574Z,12.32
2017-09-15T00:51:06.128Z,12.32
2017-09-15T00:51:46.688Z,12.32
2017-09-15T00:52:27.240Z,12.35
2017-09-15T00:53:07.827Z,12.25
2017-09-15T00:53:48.397Z,12.32
2017-09-15T00:54:28.965Z,12.35
2017-09-15T00:55:09.537Z,12.25
2017-09-15T00:55:50.106Z,12.35
2017-09-15T00:56:30.651Z,12.29
2017-09-15T00:57:11.224Z,12.32
2017-09-15T00:57:51.830Z,12.32
2017-09-15T00:58:32.364Z,12.28
2017-09-15T00:59:12.922Z,12.37
2017-09-15T00:59:53.495Z,12.31
2017-09-15T01:00:34.054Z,12.32
2017-09-15T01:01:14.608Z,12.28
2017-09-15T01:01:55.182Z,12.35
2017-09-15T01:02:35.797Z,12.36
2017-09-15T01:03:16.363Z,12.32
2017-09-15T01:03:56.938Z,12.36
2017-09-15T01:04:37.500Z,12.39
2017-09-15T01:05:18.069Z,12.4
2017-09-15T01:05:58.623Z,12.35
2017-09-15T01:06:39.185Z,12.46
2017-09-15T01:07:19.764Z,12.4
2017-09-15T01:08:00.353Z,12.45
2017-09-15T01:08:40.924Z,12.47
2017-09-15T01:09:21.500Z,12.45
2017-09-15T01:10:02.085Z,12.39
2017-09-15T01:10:42.691Z,12.47
2017-09-15T01:11:23.249Z,12.45
2017-09-15T01:12:03.810Z,12.43
2017-09-15T01:12:44.399Z,12.47
2017-09-15T01:13:24.978Z,12.42
2017-09-15T01:14:05.532Z,12.46
2017-09-15T01:14:46.098Z,12.4
2017-09-15T01:15:26.650Z,12.53
2017-09-15T01:16:07.229Z,12.47
2017-09-15T01:16:47.799Z,12.5
2017-09-15T01:17:28.361Z,12.43
2017-09-15T01:18:08.923Z,12.47
2017-09-15T01:18:49.474Z,12.47
2017-09-15T01:19:30.034Z,12.5
2017-09-15T01:20:10.590Z,12.5
2017-09-15T01:20:51.156Z,12.49
2017-09-15T01:21:31.714Z,12.49
2017-09-15T01:22:12.285Z,12.53
2017-09-15T01:22:52.844Z,12.45
2017-09-15T01:23:33.403Z,12.47
2017-09-15T01:24:17.130Z,12.47
2017-09-15T01:25:00.114Z,12.46
2017-09-15T01:25:39.664Z,12.49
2017-09-15T01:26:20.236Z,12.49
2017-09-15T01:27:00.799Z,12.46
2017-09-15T01:27:41.351Z,12.46
2017-09-15T01:28:21.905Z,12.5
2017-09-15T01:29:02.469Z,12.47
2017-09-15T01:29:43.048Z,12.47
2017-09-15T01:30:24.855Z,12.42
2017-09-15T01:31:04.770Z,12.49
2017-09-15T01:31:45.336Z,12.5
2017-09-15T01:32:25.980Z,12.49
2017-09-15T01:33:07.949Z,12.49
2017-09-15T01:33:50.652Z,12.46
2017-09-15T01:34:33.693Z,12.53
2017-09-15T01:35:15.632Z,12.55
2017-09-15T01:35:59.132Z,12.46
2017-09-15T01:36:43.606Z,12.49
2017-09-15T01:37:23.295Z,12.53
2017-09-15T01:38:03.849Z,12.49
2017-09-15T01:38:46.651Z,12.47
2017-09-15T01:39:26.644Z,12.47
2017-09-15T01:40:12.628Z,12.6
2017-09-15T01:40:52.739Z,12.45
2017-09-15T01:41:33.313Z,12.54
2017-09-15T01:42:17.086Z,12.55
2017-09-15T01:42:58.635Z,12.55
2017-09-15T01:43:41.680Z,12.54
2017-09-15T01:44:23.110Z,12.58
2017-09-15T01:45:03.682Z,12.57
2017-09-15T01:45:44.276Z,12.49
2017-09-15T01:46:26.554Z,12.5
2017-09-15T01:47:10.128Z,12.47
2017-09-15T01:47:51.564Z,12.53
2017-09-15T01:48:31.948Z,12.53
2017-09-15T01:49:13.626Z,12.53
2017-09-15T01:49:54.191Z,12.5
2017-09-15T01:50:34.771Z,12.58
2017-09-15T01:51:15.334Z,12.54
2017-09-15T01:51:58.381Z,12.55
2017-09-15T01:52:39.204Z,12.53
2017-09-15T01:53:24.629Z,12.57
2017-09-15T01:54:04.687Z,12.58
2017-09-15T01:54:45.251Z,12.55
2017-09-15T01:55:26.209Z,12.57
2017-09-15T01:56:08.646Z,12.55
2017-09-15T01:56:50.686Z,12.62
2017-09-15T01:57:33.334Z,12.62
2017-09-15T01:58:13.899Z,12.61
2017-09-15T01:58:59.164Z,12.58
2017-09-15T01:59:37.740Z,12.53
2017-09-15T02:00:18.316Z,12.62
2017-09-15T02:00:58.880Z,12.62
2017-09-15T02:01:39.447Z,12.67
2017-09-15T02:02:20.036Z,12.58
2017-09-15T02:03:00.642Z,12.55
2017-09-15T02:03:41.206Z,12.65
2017-09-15T02:04:21.764Z,12.61
2017-09-15T02:05:03.705Z,12.6
2017-09-15T02:05:44.052Z,12.61
2017-09-15T02:06:24.610Z,12.53
2017-09-15T02:07:05.181Z,12.6
2017-09-15T02:07:45.756Z,12.61
2017-09-15T02:08:26.332Z,12.57
2017-09-15T02:09:07.054Z,12.6
2017-09-15T02:09:47.617Z,12.58
2017-09-15T02:10:28.241Z,12.54
2017-09-15T02:11:08.798Z,12.6
2017-09-15T02:11:49.364Z,12.58
2017-09-15T02:12:29.928Z,12.6
2017-09-15T02:13:10.503Z,12.6
2017-09-15T02:13:51.307Z,12.61
2017-09-15T02:14:31.748Z,12.53
2017-09-15T02:15:12.341Z,12.53
2017-09-15T02:15:52.929Z,12.54
2017-09-15T02:16:33.692Z,12.62
2017-09-15T02:17:14.260Z,12.61
2017-09-15T02:17:54.824Z,12.57
2017-09-15T02:18:35.395Z,12.62
2017-09-15T02:19:15.962Z,12.6
2017-09-15T02:19:56.526Z,12.61
2017-09-15T02:20:37.093Z,12.65
2017-09-15T02:21:17.663Z,12.61
2017-09-15T02:21:58.243Z,12.62
2017-09-15T02:22:38.793Z,12.6
2017-09-15T02:23:19.378Z,12.65
2017-09-15T02:23:59.955Z,12.58
2017-09-15T02:24:40.518Z,12.58
2017-09-15T02:25:21.068Z,12.6
2017-09-15T02:26:01.636Z,12.6
2017-09-15T02:26:42.277Z,12.61
2017-09-15T02:27:22.842Z,12.58
2017-09-15T02:28:03.412Z,12.61
2017-09-15T02:28:44.001Z,12.58
2017-09-15T02:29:24.571Z,12.61
2017-09-15T02:30:06.152Z,12.64
2017-09-15T02:30:46.543Z,12.61
2017-09-15T02:31:27.124Z,12.7
2017-09-15T02:32:07.679Z,12.61
2017-09-15T02:32:48.346Z,12.72
2017-09-15T02:33:28.907Z,12.65
2017-09-15T02:34:09.468Z,12.65
2017-09-15T02:34:50.040Z,12.79
2017-09-15T02:35:30.598Z,12.75
2017-09-15T02:36:11.196Z,12.76
2017-09-15T02:36:51.752Z,12.73
2017-09-15T02:37:32.301Z,12.73
2017-09-15T02:38:12.970Z,12.7
2017-09-15T02:38:53.546Z,12.73
2017-09-15T02:39:34.114Z,12.75
2017-09-15T02:40:14.689Z,12.72
2017-09-15T02:40:55.240Z,12.73
2017-09-15T02:41:35.955Z,12.76
2017-09-15T02:42:16.515Z,12.72
2017-09-15T02:42:57.104Z,12.72
2017-09-15T02:43:37.666Z,12.72
2017-09-15T02:44:18.228Z,12.73
2017-09-15T02:44:58.897Z,12.75
2017-09-15T02:45:39.463Z,12.76
2017-09-15T02:46:20.061Z,12.78
2017-09-15T02:47:00.660Z,12.72
2017-09-15T02:47:41.226Z,12.87
2017-09-15T02:48:21.784Z,12.83
2017-09-15T02:49:02.341Z,12.73
2017-09-15T02:49:43.186Z,12.83
2017-09-15T02:50:23.755Z,12.83
2017-09-15T02:51:04.311Z,12.85
2017-09-15T02:51:45.016Z,12.82
2017-09-15T02:52:25.569Z,12.82
2017-09-15T02:53:06.137Z,12.83
2017-09-15T02:53:46.694Z,12.82
2017-09-15T02:54:27.253Z,12.8
2017-09-15T02:55:07.839Z,12.82
2017-09-15T02:55:48.397Z,12.87
2017-09-15T02:56:28.975Z,12.87
2017-09-15T02:57:09.541Z,12.79
2017-09-15T02:57:50.099Z,12.83
2017-09-15T02:58:30.657Z,12.82
2017-09-15T02:59:11.219Z,12.85
2017-09-15T02:59:51.786Z,12.83
2017-09-15T03:00:32.418Z,12.86
2017-09-15T03:01:12.972Z,12.85
2017-09-15T03:01:53.540Z,12.72
2017-09-15T03:02:34.106Z,12.79
2017-09-15T03:03:14.672Z,12.78
2017-09-15T03:03:55.232Z,12.83
2017-09-15T03:04:35.886Z,12.82
2017-09-15T03:05:16.448Z,12.87
2017-09-15T03:05:57.026Z,12.82
2017-09-15T03:06:37.682Z,12.82
2017-09-15T03:07:18.240Z,12.79
2017-09-15T03:07:58.801Z,12.85
2017-09-15T03:08:39.700Z,12.91
2017-09-15T03:09:20.089Z,12.79
2017-09-15T03:10:00.649Z,12.95
2017-09-15T03:10:41.218Z,12.83
2017-09-15T03:11:21.777Z,12.8
2017-09-15T03:12:02.753Z,12.86
2017-09-15T03:12:43.315Z,12.97
2017-09-15T03:13:23.883Z,12.86
2017-09-15T03:14:04.451Z,12.9
2017-09-15T03:14:45.034Z,12.94
2017-09-15T03:15:25.601Z,13.01
2017-09-15T03:16:06.157Z,12.9
2017-09-15T03:16:46.721Z,12.94
2017-09-15T03:17:27.294Z,12.93
2017-09-15T03:18:07.891Z,12.93
2017-09-15T03:18:48.444Z,12.94
2017-09-15T03:19:29.002Z,12.87
2017-09-15T03:20:09.575Z,12.9
2017-09-15T03:20:50.139Z,12.94
2017-09-15T03:21:30.699Z,12.86
2017-09-15T03:22:11.885Z,12.93
2017-09-15T03:22:52.407Z,12.94
2017-09-15T03:23:33.102Z,12.98
2017-09-15T03:24:13.691Z,12.95
2017-09-15T03:24:54.256Z,13
2017-09-15T03:25:34.823Z,12.97
2017-09-15T03:26:15.963Z,12.97
2017-09-15T03:26:56.519Z,12.98
2017-09-15T03:27:37.087Z,12.97
2017-09-15T03:28:17.718Z,12.91
2017-09-15T03:28:58.284Z,13
2017-09-15T03:29:38.855Z,12.97
2017-09-15T03:30:19.408Z,12.9
2017-09-15T03:30:59.976Z,12.94
2017-09-15T03:31:41.726Z,12.9
2017-09-15T03:32:22.334Z,12.97
2017-09-15T03:33:03.686Z,12.91
2017-09-15T03:33:44.033Z,12.94
2017-09-15T03:34:24.618Z,12.94
2017-09-15T03:35:05.181Z,12.93
2017-09-15T03:35:46.010Z,12.98
2017-09-15T03:36:26.594Z,12.95
2017-09-15T03:37:07.159Z,13
2017-09-15T03:37:47.750Z,12.94
2017-09-15T03:38:28.310Z,13.03
2017-09-15T03:39:08.876Z,12.97
2017-09-15T03:39:49.446Z,12.98
2017-09-15T03:40:30.017Z,13.03
2017-09-15T03:41:10.589Z,12.98
2017-09-15T03:41:51.376Z,13.04
2017-09-15T03:42:31.929Z,13.03
2017-09-15T03:43:12.519Z,13.04
2017-09-15T03:43:53.066Z,13.03
2017-09-15T03:44:33.654Z,12.97
2017-09-15T03:45:14.243Z,13.01
2017-09-15T03:45:54.819Z,13.01
2017-09-15T03:46:35.355Z,12.97
2017-09-15T03:47:15.909Z,13.01
2017-09-15T03:47:56.471Z,12.95
2017-09-15T03:48:37.041Z,12.93
2017-09-15T03:49:17.596Z,13
2017-09-15T03:49:58.173Z,12.98
2017-09-15T03:50:38.746Z,12.94
2017-09-15T03:51:19.330Z,12.94
2017-09-15T03:51:59.899Z,13.01
2017-09-15T03:52:40.618Z,12.97
2017-09-15T03:53:21.200Z,12.97
2017-09-15T03:54:01.785Z,12.97
2017-09-15T03:54:42.338Z,13
2017-09-15T03:55:22.907Z,13.01
2017-09-15T03:56:03.467Z,13
2017-09-15T03:56:44.028Z,13
2017-09-15T03:57:24.612Z,13.04
2017-09-15T03:58:05.184Z,13.03
2017-09-15T03:58:45.762Z,13.08
2017-09-15T03:59:26.371Z,13.04
2017-09-15T04:00:07.119Z,12.98
2017-09-15T04:00:47.673Z,13.04
2017-09-15T04:01:28.262Z,13.04
2017-09-15T04:02:08.816Z,13.03
2017-09-15T04:02:49.371Z,13.04
2017-09-15T04:03:30.034Z,13.04
2017-09-15T04:04:10.621Z,13.04
2017-09-15T04:04:51.186Z,13.05
2017-09-15T04:05:31.753Z,13.04
2017-09-15T04:06:12.319Z,13.08
2017-09-15T04:06:52.903Z,13.08
2017-09-15T04:07:33.495Z,13.01
2017-09-15T04:08:14.065Z,13.04
2017-09-15T04:08:54.981Z,13.05
2017-09-15T04:09:35.606Z,13
2017-09-15T04:10:16.180Z,13.08
2017-09-15T04:10:56.749Z,13.05
2017-09-15T04:11:37.312Z,13.04
2017-09-15T04:12:17.875Z,13.09
2017-09-15T04:12:58.467Z,13.05
2017-09-15T04:13:39.013Z,13.08
2017-09-15T04:14:19.587Z,13.09
2017-09-15T04:15:00.150Z,13.05
2017-09-15T04:15:40.727Z,13.08
2017-09-15T04:16:21.284Z,13.11
2017-09-15T04:17:01.869Z,13.08
2017-09-15T04:17:42.431Z,13.09
2017-09-15T04:18:22.999Z,13.09
2017-09-15T04:19:03.567Z,13.13
2017-09-15T04:19:44.125Z,13.03
2017-09-15T04:20:24.703Z,13.08
2017-09-15T04:21:05.279Z,13.09
2017-09-15T04:21:45.862Z,13.09
2017-09-15T04:22:26.471Z,13.12
2017-09-15T04:23:07.073Z,13.12
2017-09-15T04:23:47.627Z,13.12
2017-09-15T04:24:28.180Z,13.12
2017-09-15T04:25:08.761Z,13.08
2017-09-15T04:25:49.372Z,13.09
2017-09-15T04:26:29.967Z,13.05
2017-09-15T04:27:10.539Z,13.11
2017-09-15T04:27:51.113Z,13.12
2017-09-15T04:28:31.688Z,13.12
2017-09-15T04:29:12.266Z,13.11
2017-09-15T04:29:52.841Z,13.12
2017-09-15T04:30:33.434Z,13.15
2017-09-15T04:31:14.197Z,13.16
2017-09-15T04:31:54.753Z,13.13
2017-09-15T04:32:35.321Z,13.12
2017-09-15T04:33:15.893Z,13.15
2017-09-15T04:33:56.541Z,13.08
2017-09-15T04:34:37.103Z,13.15
2017-09-15T04:35:17.698Z,13.2
2017-09-15T04:35:58.280Z,13.15
2017-09-15T04:36:38.971Z,13.13
2017-09-15T04:37:19.537Z,13.22
2017-09-15T04:38:00.112Z,13.16
2017-09-15T04:38:40.673Z,13.13
2017-09-15T04:39:21.233Z,13.16
2017-09-15T04:40:01.787Z,13.18
2017-09-15T04:40:42.350Z,13.08
2017-09-15T04:41:22.929Z,13.16
2017-09-15T04:42:03.478Z,13.22
2017-09-15T04:42:44.060Z,13.11
2017-09-15T04:43:24.631Z,13.19
2017-09-15T04:44:05.226Z,13.13
2017-09-15T04:44:45.823Z,13.22
2017-09-15T04:45:26.417Z,13.11
2017-09-15T04:46:06.979Z,13.12
2017-09-15T04:46:47.544Z,13.16
2017-09-15T04:47:28.119Z,13.18
2017-09-15T04:48:08.781Z,13.22
2017-09-15T04:48:49.339Z,13.22
2017-09-15T04:49:29.912Z,13.18
2017-09-15T04:50:10.518Z,13.22
2017-09-15T04:50:51.132Z,13.16
2017-09-15T04:51:31.904Z,13.27
2017-09-15T04:52:12.481Z,13.19
2017-09-15T04:52:53.059Z,13.22
2017-09-15T04:53:33.624Z,13.18
2017-09-15T04:54:14.199Z,13.15
2017-09-15T04:54:54.764Z,13.18
2017-09-15T04:55:35.338Z,13.12
2017-09-15T04:56:15.904Z,13.15
2017-09-15T04:56:56.457Z,13.25
2017-09-15T04:57:37.055Z,13.27
2017-09-15T04:58:17.630Z,13.18
2017-09-15T04:58:58.210Z,13.22
2017-09-15T04:59:38.779Z,13.16
2017-09-15T05:00:19.339Z,13.18
2017-09-15T05:00:59.943Z,13.22
2017-09-15T05:01:40.508Z,13.23
2017-09-15T05:02:21.069Z,13.19
2017-09-15T05:03:01.631Z,13.15
2017-09-15T05:03:42.209Z,13.18
2017-09-15T05:04:22.767Z,13.22
2017-09-15T05:05:03.331Z,13.25
2017-09-15T05:05:43.965Z,13.15
2017-09-15T05:06:24.545Z,13.12
2017-09-15T05:07:05.109Z,13.19
2017-09-15T05:07:45.667Z,13.12
2017-09-15T05:08:26.222Z,13.19
2017-09-15T05:09:06.778Z,13.16
2017-09-15T05:09:47.340Z,13.19
2017-09-15T05:10:27.931Z,13.22
2017-09-15T05:11:08.475Z,13.12
2017-09-15T05:11:49.042Z,13.15
2017-09-15T05:12:29.604Z,13.11
2017-09-15T05:13:10.176Z,13.08
2017-09-15T05:13:50.733Z,13.2
2017-09-15T05:14:31.292Z,13.22
2017-09-15T05:15:11.872Z,13.18
2017-09-15T05:15:52.479Z,13.22
2017-09-15T05:16:33.036Z,13.13
2017-09-15T05:17:13.592Z,13.11
2017-09-15T05:17:54.152Z,13.19
2017-09-15T05:18:34.731Z,13.18
2017-09-15T05:19:15.300Z,13.09
2017-09-15T05:19:55.869Z,13.2
2017-09-15T05:20:36.439Z,13.23
2017-09-15T05:21:17.004Z,13.27
2017-09-15T05:21:57.555Z,13.25
2017-09-15T05:22:38.132Z,13.28
2017-09-15T05:23:18.706Z,13.25
2017-09-15T05:23:59.277Z,13.19
2017-09-15T05:24:39.856Z,13.33
2017-09-15T05:25:20.411Z,13.31
2017-09-15T05:26:00.996Z,13.31
2017-09-15T05:26:41.558Z,13.35
2017-09-15T05:27:22.134Z,13.37
2017-09-15T05:28:02.690Z,13.33
2017-09-15T05:28:43.249Z,13.3
2017-09-15T05:29:23.818Z,13.3
2017-09-15T05:30:04.378Z,13.31
2017-09-15T05:30:44.941Z,13.35
2017-09-15T05:31:25.498Z,13.37
2017-09-15T05:32:06.062Z,13.33
2017-09-15T05:32:46.632Z,13.31
2017-09-15T05:33:27.205Z,13.2
2017-09-15T05:34:07.783Z,13.23
2017-09-15T05:34:48.338Z,13.33
2017-09-15T05:35:28.891Z,13.37
2017-09-15T05:36:09.446Z,13.31
2017-09-15T05:36:49.995Z,13.35
2017-09-15T05:37:30.563Z,13.31
2017-09-15T05:38:11.118Z,13.35
2017-09-15T05:38:51.679Z,13.31
2017-09-15T05:39:32.295Z,13.33
2017-09-15T05:40:12.870Z,13.41
2017-09-15T05:40:53.432Z,13.31
2017-09-15T05:41:34.000Z,13.39
2017-09-15T05:42:14.558Z,13.42
2017-09-15T05:42:55.121Z,13.41
2017-09-15T05:43:35.682Z,13.39
2017-09-15T05:44:16.251Z,13.39
2017-09-15T05:44:56.802Z,13.41
2017-09-15T05:45:37.402Z,13.39
2017-09-15T05:46:17.968Z,13.41
2017-09-15T05:46:58.539Z,13.39
2017-09-15T05:47:39.101Z,13.38
2017-09-15T05:48:19.655Z,13.46
2017-09-15T05:49:00.226Z,13.37
2017-09-15T05:49:40.796Z,13.47
2017-09-15T05:50:21.370Z,13.44
2017-09-15T05:51:01.935Z,13.42
2017-09-15T05:51:42.505Z,13.44
2017-09-15T05:52:23.069Z,13.39
2017-09-15T05:53:03.633Z,13.42
2017-09-15T05:53:44.188Z,13.44
2017-09-15T05:54:24.755Z,13.41
2017-09-15T05:55:05.341Z,13.41
2017-09-15T05:55:45.910Z,13.47
2017-09-15T05:56:26.480Z,13.35
2017-09-15T05:57:07.063Z,13.38
2017-09-15T05:57:47.617Z,13.47
2017-09-15T05:58:28.181Z,13.52
2017-09-15T05:59:08.737Z,13.47
2017-09-15T05:59:49.315Z,13.3
2017-09-15T06:00:29.871Z,13.53
2017-09-15T06:01:10.443Z,13.39
2017-09-15T06:01:51.000Z,13.46
2017-09-15T06:02:31.540Z,13.44
2017-09-15T06:03:12.106Z,13.39
2017-09-15T06:03:53.175Z,13.44
2017-09-15T06:04:33.782Z,13.41
2017-09-15T06:05:14.355Z,13.52
2017-09-15T06:05:54.944Z,13.5
2017-09-15T06:06:35.510Z,13.49
2017-09-15T06:07:16.064Z,13.49
2017-09-15T06:07:56.622Z,13.5
2017-09-15T06:08:37.205Z,13.56
2017-09-15T06:09:17.768Z,13.47
2017-09-15T06:09:58.332Z,13.56
2017-09-15T06:10:38.920Z,13.47
2017-09-15T06:11:19.492Z,13.49
2017-09-15T06:12:00.055Z,13.52
2017-09-15T06:12:40.618Z,13.53
2017-09-15T06:13:21.181Z,13.53
2017-09-15T06:14:01.750Z,13.47
2017-09-15T06:14:42.312Z,13.49
2017-09-15T06:15:22.872Z,13.54
2017-09-15T06:16:03.447Z,13.46
2017-09-15T06:16:44.024Z,13.53
2017-09-15T06:17:24.585Z,13.52
2017-09-15T06:18:05.145Z,13.5
2017-09-15T06:18:45.740Z,13.46
2017-09-15T06:19:26.350Z,13.42
2017-09-15T06:20:06.956Z,13.41
2017-09-15T06:20:47.516Z,13.56
2017-09-15T06:21:28.118Z,13.44
2017-09-15T06:22:08.657Z,13.44
2017-09-15T06:22:49.284Z,13.47
2017-09-15T06:23:29.845Z,13.44
2017-09-15T06:24:10.410Z,13.42
2017-09-15T06:24:50.994Z,13.46
2017-09-15T06:25:31.558Z,13.52
2017-09-15T06:26:12.131Z,13.49
2017-09-15T06:26:52.695Z,13.46
2017-09-15T06:27:33.301Z,13.46
2017-09-15T06:28:13.862Z,13.52
2017-09-15T06:28:54.428Z,13.46
2017-09-15T06:29:34.985Z,13.42
2017-09-15T06:30:15.574Z,13.47
2017-09-15T06:30:56.149Z,13.44
2017-09-15T06:31:36.707Z,13.53
2017-09-15T06:32:17.280Z,13.5
2017-09-15T06:32:57.842Z,13.5
2017-09-15T06:33:38.388Z,13.52
2017-09-15T06:34:18.981Z,13.53
2017-09-15T06:34:59.589Z,13.49
2017-09-15T06:35:40.149Z,13.5
2017-09-15T06:36:20.783Z,13.46
2017-09-15T06:37:01.348Z,13.47
2017-09-15T06:37:41.904Z,13.52
2017-09-15T06:38:22.459Z,13.44
2017-09-15T06:39:03.015Z,13.47
2017-09-15T06:39:43.600Z,13.54
2017-09-15T06:40:25.108Z,13.52
2017-09-15T06:41:05.717Z,13.56
2017-09-15T06:41:46.308Z,13.54
2017-09-15T06:42:26.875Z,13.62
2017-09-15T06:43:07.433Z,13.6
2017-09-15T06:43:47.994Z,13.59
2017-09-15T06:44:28.551Z,13.54
2017-09-15T06:45:09.107Z,13.57
2017-09-15T06:45:49.664Z,13.57
2017-09-15T06:46:30.224Z,13.57
2017-09-15T06:47:10.793Z,13.67
2017-09-15T06:47:51.363Z,13.67
2017-09-15T06:48:31.929Z,13.59
2017-09-15T06:49:12.487Z,13.63
2017-09-15T06:49:53.052Z,13.72
2017-09-15T06:50:33.635Z,13.67
2017-09-15T06:51:14.187Z,13.74
2017-09-15T06:51:54.773Z,13.74
2017-09-15T06:52:35.349Z,13.77
2017-09-15T06:53:15.906Z,13.75
2017-09-15T06:53:56.464Z,13.77
2017-09-15T06:54:37.027Z,13.72
2017-09-15T06:55:17.673Z,13.77
2017-09-15T06:55:58.309Z,13.86
2017-09-15T06:56:38.863Z,13.79
2017-09-15T06:57:19.431Z,13.77
2017-09-15T06:58:00.001Z,13.81
2017-09-15T06:58:40.562Z,13.85
2017-09-15T06:59:21.127Z,13.9
2017-09-15T07:00:01.714Z,13.95
2017-09-15T07:00:42.304Z,13.89
2017-09-15T07:01:22.874Z,14.04
2017-09-15T07:02:03.443Z,14
2017-09-15T07:02:44.039Z,14.12
2017-09-15T07:03:24.627Z,14.15
2017-09-15T07:04:05.224Z,14.28
2017-09-15T07:04:45.790Z,14.28
2017-09-15T07:05:26.379Z,14.29
2017-09-15T07:06:06.962Z,14.47
2017-09-15T07:06:47.524Z,14.4
2017-09-15T07:07:28.083Z,14.53
2017-09-15T07:08:08.669Z,14.48
2017-09-15T07:08:49.235Z,14.5
2017-09-15T07:09:29.795Z,14.53
2017-09-15T07:10:10.374Z,14.51
2017-09-15T07:10:51.011Z,14.54
2017-09-15T07:11:31.687Z,14.58
2017-09-15T07:12:12.246Z,14.51
2017-09-15T07:12:52.801Z,14.54
2017-09-15T07:13:33.397Z,14.58
2017-09-15T07:14:14.004Z,14.6
2017-09-15T07:14:54.574Z,14.68
2017-09-15T07:15:35.141Z,14.84
2017-09-15T07:16:15.721Z,14.79
2017-09-15T07:16:56.359Z,14.88
2017-09-15T07:17:36.948Z,15.02
2017-09-15T07:18:17.514Z,15.14
2017-09-15T07:18:58.072Z,15.15
2017-09-15T07:19:38.674Z,15.25
2017-09-15T07:20:19.234Z,15.27
2017-09-15T07:20:59.794Z,15.28
2017-09-15T07:21:40.411Z,15.39
2017-09-15T07:22:20.980Z,15.37
2017-09-15T07:23:01.555Z,15.35
2017-09-15T07:23:42.146Z,15.49
2017-09-15T07:24:22.719Z,15.58
2017-09-15T07:25:03.288Z,15.75
2017-09-15T07:25:43.864Z,15.92
2017-09-15T07:26:24.430Z,15.98
2017-09-15T07:27:05.012Z,16.33
2017-09-15T07:27:45.633Z,16.47
2017-09-15T07:28:27.662Z,16.56
2017-09-15T07:29:08.669Z,16.61
2017-09-15T07:29:49.420Z,16.74
2017-09-15T07:30:30.355Z,16.87
2017-09-15T07:31:10.928Z,17.04
2017-09-15T07:31:51.500Z,17.23
2017-09-15T07:32:32.460Z,17.22
2017-09-15T07:33:13.028Z,17.14
2017-09-15T07:33:53.628Z,17.12
2017-09-15T07:34:34.240Z,17.23
2017-09-15T07:35:14.844Z,17.38
2017-09-15T07:35:55.413Z,17.31
2017-09-15T07:36:36.010Z,17.48
2017-09-15T07:37:16.632Z,17.64
2017-09-15T07:37:57.199Z,17.48
2017-09-15T07:38:38.061Z,17.45
2017-09-15T07:39:18.676Z,17.41
2017-09-15T07:39:59.259Z,17.45
2017-09-15T07:40:39.950Z,17.54
2017-09-15T07:41:20.506Z,17.7
2017-09-15T07:42:01.073Z,17.76
2017-09-15T07:42:41.867Z,17.89
2017-09-15T07:43:22.452Z,18.01
2017-09-15T07:44:03.020Z,18.2
2017-09-15T07:44:43.622Z,18.26
2017-09-15T07:45:24.205Z,18.31
2017-09-15T07:46:04.765Z,18.35
2017-09-15T07:46:45.362Z,18.29
2017-09-15T07:47:25.940Z,18.31
2017-09-15T07:48:06.557Z,18.41
2017-09-15T07:48:47.163Z,18.38
2017-09-15T07:49:27.737Z,18.45
2017-09-15T07:50:08.298Z,18.37
2017-09-15T07:50:48.921Z,18.33
2017-09-15T07:51:29.496Z,18.25
2017-09-15T07:52:10.098Z,18.04
2017-09-15T07:52:50.686Z,17.98
2017-09-15T07:53:31.243Z,17.86
2017-09-15T07:54:11.805Z,17.9
2017-09-15T07:54:52.389Z,17.9
2017-09-15T07:55:33.000Z,18
2017-09-15T07:56:13.591Z,18.03
2017-09-15T07:56:54.175Z,18.16
2017-09-15T07:57:34.759Z,18.2
2017-09-15T07:58:15.340Z,18.26
2017-09-15T07:58:55.920Z,18.28
2017-09-15T07:59:36.489Z,18.34
2017-09-15T08:00:17.066Z,18.33
2017-09-15T08:00:57.648Z,18.28
2017-09-15T08:01:38.233Z,18.31
2017-09-15T08:02:18.826Z,18.31
2017-09-15T08:02:59.405Z,18.31
2017-09-15T08:03:39.959Z,18.25
2017-09-15T08:04:20.527Z,18.35
2017-09-15T08:05:01.093Z,18.37
2017-09-15T08:05:41.684Z,18.44
2017-09-15T08:06:22.261Z,18.45
2017-09-15T08:07:02.838Z,18.33
2017-09-15T08:07:43.468Z,18.43
2017-09-15T08:08:24.026Z,18.38
2017-09-15T08:09:04.710Z,18.29
2017-09-15T08:09:45.290Z,18.2
2017-09-15T08:10:25.862Z,18.13
2017-09-15T08:11:06.465Z,18.15
2017-09-15T08:11:47.062Z,18.19
2017-09-15T08:12:27.648Z,18.22
2017-09-15T08:13:08.225Z,18.33
2017-09-15T08:13:48.811Z,18.26
2017-09-15T08:14:29.382Z,18.25
2017-09-15T08:15:09.978Z,18.34
2017-09-15T08:15:50.520Z,18.41
2017-09-15T08:16:31.084Z,18.49
2017-09-15T08:17:11.662Z,18.45
2017-09-15T08:17:52.218Z,18.45
2017-09-15T08:18:32.814Z,18.28
2017-09-15T08:19:13.407Z,18.25
2017-09-15T08:19:53.973Z,18.31
2017-09-15T08:20:34.535Z,18.28
2017-09-15T08:21:15.114Z,18.25
2017-09-15T08:21:55.699Z,18.37
2017-09-15T08:22:36.285Z,18.34
2017-09-15T08:23:16.867Z,18.44
2017-09-15T08:23:57.458Z,18.52
2017-09-15T08:24:38.027Z,18.56
2017-09-15T08:25:18.592Z,18.62
2017-09-15T08:25:59.162Z,18.74
2017-09-15T08:26:39.743Z,18.73
2017-09-15T08:27:20.320Z,18.92
2017-09-15T08:28:00.894Z,18.9
2017-09-15T08:28:41.463Z,18.99
2017-09-15T08:29:22.025Z,18.93
2017-09-15T08:30:02.599Z,18.9
2017-09-15T08:30:43.167Z,18.88
2017-09-15T08:31:23.737Z,18.75
2017-09-15T08:32:04.299Z,18.77
2017-09-15T08:32:44.866Z,18.77
2017-09-15T08:33:25.442Z,18.73
2017-09-15T08:34:06.042Z,18.68
2017-09-15T08:34:46.611Z,18.63
2017-09-15T08:35:27.191Z,18.58
2017-09-15T08:36:07.761Z,18.53
2017-09-15T08:36:48.350Z,18.41
2017-09-15T08:37:28.915Z,18.28
2017-09-15T08:38:09.514Z,18.25
2017-09-15T08:38:50.193Z,18.13
2017-09-15T08:39:30.790Z,17.9
2017-09-15T08:40:11.395Z,17.85
2017-09-15T08:40:51.971Z,17.67
2017-09-15T08:41:32.544Z,17.6
2017-09-15T08:42:13.114Z,17.44
2017-09-15T08:42:53.701Z,17.39
2017-09-15T08:43:34.278Z,17.29
2017-09-15T08:44:14.844Z,17.3
2017-09-15T08:44:55.454Z,17.27
2017-09-15T08:45:36.053Z,17.38
2017-09-15T08:46:16.644Z,17.34